sensor_id;sensor_type;location;lat;lon;timestamp;P1;durP1;ratioP1;P2;durP2;ratioP2
4466;SDS011;2246;42.664;23.278;2022-07-11T00:01:48;4.68;;;1.98;;
4466;SDS011;2246;42.664;23.278;2022-07-11T00:04:15;4.75;;;1.80;;
4466;SDS011;2246;42.664;23.278;2022-07-11T00:06:41;3.95;;;1.75;;
4466;SDS011;2246;42.664;23.278;2022-07-11T00:09:07;2.60;;;1.88;;
4466;SDS011;2246;42.664;23.278;2022-07-11T00:11:33;4.25;;;1.70;;
4466;SDS011;2246;42.664;23.278;2022-07-11T00:13:59;4.68;;;1.88;;
4466;SDS011;2246;42.664;23.278;2022-07-11T00:16:25;4.80;;;1.67;;
4466;SDS011;2246;42.664;23.278;2022-07-11T00:18:51;3.78;;;1.80;;
4466;SDS011;2246;42.664;23.278;2022-07-11T00:21:17;3.20;;;1.67;;
4466;SDS011;2246;42.664;23.278;2022-07-11T00:23:44;2.40;;;1.73;;
4466;SDS011;2246;42.664;23.278;2022-07-11T00:26:10;3.00;;;1.70;;
4466;SDS011;2246;42.664;23.278;2022-07-11T00:28:36;5.03;;;1.60;;
4466;SDS011;2246;42.664;23.278;2022-07-11T00:31:02;3.88;;;1.40;;
4466;SDS011;2246;42.664;23.278;2022-07-11T00:33:28;4.40;;;1.50;;
4466;SDS011;2246;42.664;23.278;2022-07-11T00:35:54;4.22;;;1.50;;
4466;SDS011;2246;42.664;23.278;2022-07-11T00:38:20;2.72;;;1.50;;
4466;SDS011;2246;42.664;23.278;2022-07-11T00:40:46;4.93;;;1.60;;
4466;SDS011;2246;42.664;23.278;2022-07-11T00:43:12;3.10;;;1.60;;
4466;SDS011;2246;42.664;23.278;2022-07-11T00:45:44;2.70;;;1.67;;
4466;SDS011;2246;42.664;23.278;2022-07-11T00:48:10;3.25;;;1.35;;
4466;SDS011;2246;42.664;23.278;2022-07-11T00:50:36;3.80;;;1.58;;
4466;SDS011;2246;42.664;23.278;2022-07-11T00:53:02;2.10;;;1.63;;
4466;SDS011;2246;42.664;23.278;2022-07-11T00:55:28;7.78;;;1.92;;
4466;SDS011;2246;42.664;23.278;2022-07-11T00:57:54;1.88;;;1.60;;
4466;SDS011;2246;42.664;23.278;2022-07-11T01:00:20;2.42;;;1.40;;
4466;SDS011;2246;42.664;23.278;2022-07-11T01:02:46;4.28;;;1.73;;
4466;SDS011;2246;42.664;23.278;2022-07-11T01:05:13;2.67;;;1.50;;
4466;SDS011;2246;42.664;23.278;2022-07-11T01:07:39;4.93;;;1.63;;
4466;SDS011;2246;42.664;23.278;2022-07-11T01:10:05;6.00;;;1.50;;
4466;SDS011;2246;42.664;23.278;2022-07-11T01:12:31;5.03;;;1.60;;
4466;SDS011;2246;42.664;23.278;2022-07-11T01:14:57;4.95;;;1.50;;
4466;SDS011;2246;42.664;23.278;2022-07-11T01:17:24;3.83;;;1.50;;
4466;SDS011;2246;42.664;23.278;2022-07-11T01:19:50;5.75;;;1.77;;
4466;SDS011;2246;42.664;23.278;2022-07-11T01:22:18;1.73;;;1.60;;
4466;SDS011;2246;42.664;23.278;2022-07-11T01:24:46;3.13;;;1.50;;
4466;SDS011;2246;42.664;23.278;2022-07-11T01:27:12;5.22;;;1.50;;
4466;SDS011;2246;42.664;23.278;2022-07-11T01:29:39;5.63;;;1.83;;
4466;SDS011;2246;42.664;23.278;2022-07-11T01:32:05;2.60;;;1.60;;
4466;SDS011;2246;42.664;23.278;2022-07-11T01:34:32;9.57;;;1.63;;
4466;SDS011;2246;42.664;23.278;2022-07-11T01:36:58;5.70;;;1.60;;
4466;SDS011;2246;42.664;23.278;2022-07-11T01:39:25;2.72;;;1.27;;
4466;SDS011;2246;42.664;23.278;2022-07-11T01:41:54;2.15;;;1.40;;
4466;SDS011;2246;42.664;23.278;2022-07-11T01:44:20;1.80;;;1.23;;
4466;SDS011;2246;42.664;23.278;2022-07-11T01:46:46;3.28;;;1.95;;
4466;SDS011;2246;42.664;23.278;2022-07-11T01:49:13;6.20;;;1.52;;
4466;SDS011;2246;42.664;23.278;2022-07-11T01:51:40;3.47;;;1.40;;
4466;SDS011;2246;42.664;23.278;2022-07-11T01:54:07;5.55;;;1.95;;
4466;SDS011;2246;42.664;23.278;2022-07-11T01:56:33;3.58;;;1.73;;
4466;SDS011;2246;42.664;23.278;2022-07-11T01:58:59;4.90;;;1.52;;
4466;SDS011;2246;42.664;23.278;2022-07-11T02:01:26;6.57;;;1.67;;
4466;SDS011;2246;42.664;23.278;2022-07-11T02:03:52;5.28;;;1.70;;
4466;SDS011;2246;42.664;23.278;2022-07-11T02:08:45;3.88;;;1.30;;
4466;SDS011;2246;42.664;23.278;2022-07-11T02:11:12;4.93;;;1.40;;
4466;SDS011;2246;42.664;23.278;2022-07-11T02:13:38;2.72;;;1.50;;
4466;SDS011;2246;42.664;23.278;2022-07-11T02:16:04;2.05;;;1.20;;
4466;SDS011;2246;42.664;23.278;2022-07-11T02:18:30;3.63;;;1.52;;
4466;SDS011;2246;42.664;23.278;2022-07-11T02:20:59;1.92;;;1.40;;
4466;SDS011;2246;42.664;23.278;2022-07-11T02:23:25;3.20;;;1.40;;
4466;SDS011;2246;42.664;23.278;2022-07-11T02:25:51;5.85;;;1.67;;
4466;SDS011;2246;42.664;23.278;2022-07-11T02:28:18;5.45;;;1.73;;
4466;SDS011;2246;42.664;23.278;2022-07-11T02:30:44;2.90;;;1.23;;
4466;SDS011;2246;42.664;23.278;2022-07-11T02:33:10;3.28;;;1.35;;
4466;SDS011;2246;42.664;23.278;2022-07-11T02:35:40;2.47;;;1.60;;
4466;SDS011;2246;42.664;23.278;2022-07-11T02:38:06;2.47;;;1.40;;
4466;SDS011;2246;42.664;23.278;2022-07-11T02:40:32;4.05;;;1.90;;
4466;SDS011;2246;42.664;23.278;2022-07-11T02:42:58;1.60;;;1.30;;
4466;SDS011;2246;42.664;23.278;2022-07-11T02:45:24;1.88;;;1.50;;
4466;SDS011;2246;42.664;23.278;2022-07-11T02:47:51;2.20;;;1.40;;
4466;SDS011;2246;42.664;23.278;2022-07-11T02:50:17;4.28;;;1.60;;
4466;SDS011;2246;42.664;23.278;2022-07-11T02:52:43;4.97;;;1.33;;
4466;SDS011;2246;42.664;23.278;2022-07-11T02:55:10;2.28;;;1.27;;
4466;SDS011;2246;42.664;23.278;2022-07-11T02:57:36;2.50;;;1.50;;
4466;SDS011;2246;42.664;23.278;2022-07-11T03:00:07;4.07;;;1.50;;
4466;SDS011;2246;42.664;23.278;2022-07-11T03:02:33;8.50;;;1.40;;
4466;SDS011;2246;42.664;23.278;2022-07-11T03:04:59;4.65;;;1.40;;
4466;SDS011;2246;42.664;23.278;2022-07-11T03:07:25;2.28;;;1.48;;
4466;SDS011;2246;42.664;23.278;2022-07-11T03:09:52;3.85;;;1.40;;
4466;SDS011;2246;42.664;23.278;2022-07-11T03:12:18;6.18;;;1.25;;
4466;SDS011;2246;42.664;23.278;2022-07-11T03:14:44;2.25;;;1.45;;
4466;SDS011;2246;42.664;23.278;2022-07-11T03:17:10;4.60;;;1.58;;
4466;SDS011;2246;42.664;23.278;2022-07-11T03:19:37;5.32;;;1.40;;
4466;SDS011;2246;42.664;23.278;2022-07-11T03:22:03;2.42;;;1.10;;
4466;SDS011;2246;42.664;23.278;2022-07-11T03:24:30;1.90;;;1.40;;
4466;SDS011;2246;42.664;23.278;2022-07-11T03:26:56;6.35;;;1.50;;
4466;SDS011;2246;42.664;23.278;2022-07-11T03:29:22;3.60;;;1.38;;
4466;SDS011;2246;42.664;23.278;2022-07-11T03:31:48;3.28;;;1.50;;
4466;SDS011;2246;42.664;23.278;2022-07-11T03:34:14;4.00;;;1.27;;
4466;SDS011;2246;42.664;23.278;2022-07-11T03:36:40;5.95;;;1.70;;
4466;SDS011;2246;42.664;23.278;2022-07-11T03:39:06;6.55;;;1.52;;
4466;SDS011;2246;42.664;23.278;2022-07-11T03:41:32;11.13;;;1.90;;
4466;SDS011;2246;42.664;23.278;2022-07-11T03:43:59;4.80;;;1.92;;
4466;SDS011;2246;42.664;23.278;2022-07-11T03:46:25;3.72;;;1.85;;
4466;SDS011;2246;42.664;23.278;2022-07-11T03:48:51;7.85;;;2.05;;
4466;SDS011;2246;42.664;23.278;2022-07-11T03:51:17;4.32;;;2.30;;
4466;SDS011;2246;42.664;23.278;2022-07-11T03:53:43;10.50;;;3.03;;
4466;SDS011;2246;42.664;23.278;2022-07-11T03:56:09;6.45;;;2.85;;
4466;SDS011;2246;42.664;23.278;2022-07-11T03:58:35;4.38;;;2.47;;
4466;SDS011;2246;42.664;23.278;2022-07-11T04:01:01;6.50;;;2.47;;
4466;SDS011;2246;42.664;23.278;2022-07-11T04:03:27;4.78;;;2.10;;
4466;SDS011;2246;42.664;23.278;2022-07-11T04:05:53;10.98;;;2.60;;
4466;SDS011;2246;42.664;23.278;2022-07-11T04:08:19;7.05;;;2.97;;
4466;SDS011;2246;42.664;23.278;2022-07-11T04:10:46;6.93;;;2.88;;
4466;SDS011;2246;42.664;23.278;2022-07-11T04:13:12;6.78;;;2.60;;
4466;SDS011;2246;42.664;23.278;2022-07-11T04:15:38;5.00;;;2.67;;
4466;SDS011;2246;42.664;23.278;2022-07-11T04:18:04;4.18;;;2.05;;
4466;SDS011;2246;42.664;23.278;2022-07-11T04:20:30;3.28;;;1.80;;
4466;SDS011;2246;42.664;23.278;2022-07-11T04:22:56;7.20;;;2.25;;
4466;SDS011;2246;42.664;23.278;2022-07-11T04:25:22;6.32;;;2.10;;
4466;SDS011;2246;42.664;23.278;2022-07-11T04:27:48;3.05;;;1.88;;
4466;SDS011;2246;42.664;23.278;2022-07-11T04:30:14;5.65;;;1.92;;
4466;SDS011;2246;42.664;23.278;2022-07-11T04:32:41;3.97;;;1.98;;
4466;SDS011;2246;42.664;23.278;2022-07-11T04:35:07;2.75;;;1.98;;
4466;SDS011;2246;42.664;23.278;2022-07-11T04:37:33;7.88;;;2.50;;
4466;SDS011;2246;42.664;23.278;2022-07-11T04:39:59;6.78;;;2.75;;
4466;SDS011;2246;42.664;23.278;2022-07-11T04:42:25;4.57;;;2.28;;
4466;SDS011;2246;42.664;23.278;2022-07-11T04:44:51;5.80;;;2.30;;
4466;SDS011;2246;42.664;23.278;2022-07-11T04:47:17;8.27;;;2.70;;
4466;SDS011;2246;42.664;23.278;2022-07-11T04:49:44;7.50;;;2.67;;
4466;SDS011;2246;42.664;23.278;2022-07-11T04:52:12;4.30;;;2.15;;
4466;SDS011;2246;42.664;23.278;2022-07-11T04:54:38;6.45;;;2.60;;
4466;SDS011;2246;42.664;23.278;2022-07-11T04:57:04;2.78;;;2.00;;
4466;SDS011;2246;42.664;23.278;2022-07-11T04:59:31;12.35;;;2.50;;
4466;SDS011;2246;42.664;23.278;2022-07-11T05:01:57;5.03;;;2.08;;
4466;SDS011;2246;42.664;23.278;2022-07-11T05:04:23;4.63;;;1.80;;
4466;SDS011;2246;42.664;23.278;2022-07-11T05:06:49;2.50;;;1.73;;
4466;SDS011;2246;42.664;23.278;2022-07-11T05:09:15;5.10;;;2.03;;
4466;SDS011;2246;42.664;23.278;2022-07-11T05:11:42;6.55;;;2.33;;
4466;SDS011;2246;42.664;23.278;2022-07-11T05:14:08;8.73;;;1.75;;
4466;SDS011;2246;42.664;23.278;2022-07-11T05:16:34;3.38;;;1.92;;
4466;SDS011;2246;42.664;23.278;2022-07-11T05:19:00;3.70;;;1.65;;
4466;SDS011;2246;42.664;23.278;2022-07-11T05:21:26;3.30;;;1.70;;
4466;SDS011;2246;42.664;23.278;2022-07-11T05:23:52;3.35;;;1.35;;
4466;SDS011;2246;42.664;23.278;2022-07-11T05:26:18;3.70;;;1.55;;
4466;SDS011;2246;42.664;23.278;2022-07-11T05:28:45;5.85;;;1.60;;
4466;SDS011;2246;42.664;23.278;2022-07-11T05:31:11;4.03;;;1.98;;
4466;SDS011;2246;42.664;23.278;2022-07-11T05:33:37;2.60;;;1.38;;
4466;SDS011;2246;42.664;23.278;2022-07-11T05:36:03;4.93;;;1.50;;
4466;SDS011;2246;42.664;23.278;2022-07-11T05:38:30;4.97;;;1.30;;
4466;SDS011;2246;42.664;23.278;2022-07-11T05:40:56;2.05;;;1.30;;
4466;SDS011;2246;42.664;23.278;2022-07-11T05:43:23;3.13;;;1.60;;
4466;SDS011;2246;42.664;23.278;2022-07-11T05:45:49;2.50;;;1.42;;
4466;SDS011;2246;42.664;23.278;2022-07-11T05:48:15;6.35;;;2.42;;
4466;SDS011;2246;42.664;23.278;2022-07-11T05:50:42;3.38;;;1.58;;
4466;SDS011;2246;42.664;23.278;2022-07-11T05:53:08;4.83;;;1.30;;
4466;SDS011;2246;42.664;23.278;2022-07-11T05:55:36;2.40;;;1.55;;
4466;SDS011;2246;42.664;23.278;2022-07-11T05:58:02;1.70;;;0.90;;
4466;SDS011;2246;42.664;23.278;2022-07-11T06:00:28;3.65;;;1.05;;
4466;SDS011;2246;42.664;23.278;2022-07-11T06:02:54;6.95;;;1.52;;
4466;SDS011;2246;42.664;23.278;2022-07-11T06:05:20;9.60;;;1.48;;
4466;SDS011;2246;42.664;23.278;2022-07-11T06:07:47;3.10;;;2.00;;
4466;SDS011;2246;42.664;23.278;2022-07-11T06:10:32;1.50;;;0.90;;
4466;SDS011;2246;42.664;23.278;2022-07-11T06:12:59;5.18;;;1.00;;
4466;SDS011;2246;42.664;23.278;2022-07-11T06:15:25;9.30;;;1.35;;
4466;SDS011;2246;42.664;23.278;2022-07-11T06:17:52;2.17;;;1.10;;
4466;SDS011;2246;42.664;23.278;2022-07-11T06:20:18;8.10;;;1.77;;
4466;SDS011;2246;42.664;23.278;2022-07-11T06:22:44;13.38;;;1.30;;
4466;SDS011;2246;42.664;23.278;2022-07-11T06:25:10;9.18;;;1.13;;
4466;SDS011;2246;42.664;23.278;2022-07-11T06:27:36;9.25;;;1.20;;
4466;SDS011;2246;42.664;23.278;2022-07-11T06:30:03;2.83;;;0.90;;
4466;SDS011;2246;42.664;23.278;2022-07-11T06:32:29;1.70;;;0.90;;
4466;SDS011;2246;42.664;23.278;2022-07-11T06:34:56;4.90;;;0.93;;
4466;SDS011;2246;42.664;23.278;2022-07-11T06:37:22;4.82;;;0.90;;
4466;SDS011;2246;42.664;23.278;2022-07-11T06:39:48;3.00;;;1.05;;
4466;SDS011;2246;42.664;23.278;2022-07-11T06:42:14;2.53;;;1.50;;
4466;SDS011;2246;42.664;23.278;2022-07-11T06:44:40;5.85;;;1.00;;
4466;SDS011;2246;42.664;23.278;2022-07-11T06:47:06;5.57;;;0.80;;
4466;SDS011;2246;42.664;23.278;2022-07-11T06:49:33;1.88;;;0.90;;
4466;SDS011;2246;42.664;23.278;2022-07-11T06:51:59;5.22;;;1.23;;
4466;SDS011;2246;42.664;23.278;2022-07-11T06:54:25;1.60;;;0.75;;
4466;SDS011;2246;42.664;23.278;2022-07-11T06:56:51;3.15;;;0.80;;
4466;SDS011;2246;42.664;23.278;2022-07-11T06:59:17;0.85;;;0.60;;
4466;SDS011;2246;42.664;23.278;2022-07-11T07:01:43;1.15;;;0.68;;
4466;SDS011;2246;42.664;23.278;2022-07-11T07:04:09;1.70;;;0.80;;
4466;SDS011;2246;42.664;23.278;2022-07-11T07:06:35;2.33;;;0.75;;
4466;SDS011;2246;42.664;23.278;2022-07-11T07:09:02;4.28;;;0.93;;
4466;SDS011;2246;42.664;23.278;2022-07-11T07:11:28;2.95;;;0.90;;
4466;SDS011;2246;42.664;23.278;2022-07-11T07:13:54;2.42;;;0.80;;
4466;SDS011;2246;42.664;23.278;2022-07-11T07:16:20;4.55;;;0.90;;
4466;SDS011;2246;42.664;23.278;2022-07-11T07:18:46;1.15;;;0.75;;
4466;SDS011;2246;42.664;23.278;2022-07-11T07:21:15;3.92;;;0.80;;
4466;SDS011;2246;42.664;23.278;2022-07-11T07:23:41;1.35;;;0.90;;
4466;SDS011;2246;42.664;23.278;2022-07-11T07:26:07;4.20;;;0.80;;
4466;SDS011;2246;42.664;23.278;2022-07-11T07:28:33;5.75;;;1.73;;
4466;SDS011;2246;42.664;23.278;2022-07-11T07:31:00;1.75;;;0.77;;
4466;SDS011;2246;42.664;23.278;2022-07-11T07:33:26;1.95;;;1.08;;
4466;SDS011;2246;42.664;23.278;2022-07-11T07:35:52;2.53;;;0.80;;
4466;SDS011;2246;42.664;23.278;2022-07-11T07:38:18;9.15;;;1.35;;
4466;SDS011;2246;42.664;23.278;2022-07-11T07:40:44;5.32;;;1.08;;
4466;SDS011;2246;42.664;23.278;2022-07-11T07:43:10;3.20;;;0.88;;
4466;SDS011;2246;42.664;23.278;2022-07-11T07:45:36;3.38;;;1.15;;
4466;SDS011;2246;42.664;23.278;2022-07-11T07:48:02;3.53;;;1.02;;
4466;SDS011;2246;42.664;23.278;2022-07-11T07:50:29;2.33;;;0.80;;
4466;SDS011;2246;42.664;23.278;2022-07-11T07:52:55;4.88;;;1.05;;
4466;SDS011;2246;42.664;23.278;2022-07-11T07:55:21;1.65;;;0.90;;
4466;SDS011;2246;42.664;23.278;2022-07-11T07:57:47;3.95;;;1.15;;
4466;SDS011;2246;42.664;23.278;2022-07-11T08:00:13;2.03;;;1.02;;
4466;SDS011;2246;42.664;23.278;2022-07-11T08:03:05;4.68;;;1.00;;
4466;SDS011;2246;42.664;23.278;2022-07-11T08:05:33;7.55;;;0.93;;
4466;SDS011;2246;42.664;23.278;2022-07-11T08:07:59;4.13;;;0.90;;
4466;SDS011;2246;42.664;23.278;2022-07-11T08:10:25;1.33;;;0.95;;
4466;SDS011;2246;42.664;23.278;2022-07-11T08:12:51;5.05;;;1.15;;
4466;SDS011;2246;42.664;23.278;2022-07-11T08:15:17;3.15;;;0.88;;
4466;SDS011;2246;42.664;23.278;2022-07-11T08:17:43;6.40;;;0.90;;
4466;SDS011;2246;42.664;23.278;2022-07-11T08:20:09;3.33;;;0.90;;
4466;SDS011;2246;42.664;23.278;2022-07-11T08:22:36;9.35;;;1.13;;
4466;SDS011;2246;42.664;23.278;2022-07-11T08:25:05;2.42;;;1.00;;
4466;SDS011;2246;42.664;23.278;2022-07-11T08:27:31;3.47;;;0.85;;
4466;SDS011;2246;42.664;23.278;2022-07-11T08:29:57;2.25;;;0.80;;
4466;SDS011;2246;42.664;23.278;2022-07-11T08:32:23;2.83;;;0.70;;
4466;SDS011;2246;42.664;23.278;2022-07-11T08:34:49;2.83;;;0.80;;
4466;SDS011;2246;42.664;23.278;2022-07-11T08:37:15;3.85;;;1.15;;
4466;SDS011;2246;42.664;23.278;2022-07-11T08:39:41;2.30;;;0.93;;
4466;SDS011;2246;42.664;23.278;2022-07-11T08:42:07;3.03;;;0.90;;
4466;SDS011;2246;42.664;23.278;2022-07-11T08:44:34;6.28;;;1.48;;
4466;SDS011;2246;42.664;23.278;2022-07-11T08:47:00;1.80;;;0.90;;
4466;SDS011;2246;42.664;23.278;2022-07-11T08:49:27;3.73;;;0.93;;
4466;SDS011;2246;42.664;23.278;2022-07-11T08:51:53;6.25;;;1.00;;
4466;SDS011;2246;42.664;23.278;2022-07-11T08:54:19;3.70;;;0.80;;
4466;SDS011;2246;42.664;23.278;2022-07-11T08:56:45;4.20;;;1.02;;
4466;SDS011;2246;42.664;23.278;2022-07-11T08:59:17;9.02;;;1.40;;
4466;SDS011;2246;42.664;23.278;2022-07-11T09:01:45;4.88;;;0.70;;
4466;SDS011;2246;42.664;23.278;2022-07-11T09:06:39;3.00;;;0.90;;
4466;SDS011;2246;42.664;23.278;2022-07-11T09:09:05;4.70;;;0.90;;
4466;SDS011;2246;42.664;23.278;2022-07-11T09:14:25;4.28;;;0.93;;
4466;SDS011;2246;42.664;23.278;2022-07-11T09:16:58;2.40;;;1.13;;
4466;SDS011;2246;42.664;23.278;2022-07-11T09:19:26;3.47;;;0.90;;
4466;SDS011;2246;42.664;23.278;2022-07-11T09:24:59;6.57;;;1.30;;
4466;SDS011;2246;42.664;23.278;2022-07-11T09:27:44;4.28;;;1.20;;
4466;SDS011;2246;42.664;23.278;2022-07-11T09:30:21;5.15;;;0.80;;
4466;SDS011;2246;42.664;23.278;2022-07-11T09:33:20;4.22;;;0.80;;
4466;SDS011;2246;42.664;23.278;2022-07-11T09:35:41;2.97;;;1.20;;
4466;SDS011;2246;42.664;23.278;2022-07-11T09:38:08;1.48;;;0.80;;
4466;SDS011;2246;42.664;23.278;2022-07-11T09:40:35;20.27;;;1.15;;
4466;SDS011;2246;42.664;23.278;2022-07-11T09:43:02;6.25;;;1.55;;
4466;SDS011;2246;42.664;23.278;2022-07-11T09:45:29;6.90;;;1.10;;
4466;SDS011;2246;42.664;23.278;2022-07-11T09:47:57;4.65;;;0.90;;
4466;SDS011;2246;42.664;23.278;2022-07-11T09:50:24;2.33;;;0.70;;
4466;SDS011;2246;42.664;23.278;2022-07-11T09:55:26;2.85;;;0.80;;
4466;SDS011;2246;42.664;23.278;2022-07-11T09:57:52;3.03;;;1.00;;
4466;SDS011;2246;42.664;23.278;2022-07-11T10:00:19;1.63;;;0.70;;
4466;SDS011;2246;42.664;23.278;2022-07-11T10:02:45;3.13;;;0.93;;
4466;SDS011;2246;42.664;23.278;2022-07-11T10:05:11;7.30;;;1.10;;
4466;SDS011;2246;42.664;23.278;2022-07-11T10:07:37;5.07;;;0.80;;
4466;SDS011;2246;42.664;23.278;2022-07-11T10:10:04;5.35;;;1.10;;
4466;SDS011;2246;42.664;23.278;2022-07-11T10:12:30;3.88;;;0.90;;
4466;SDS011;2246;42.664;23.278;2022-07-11T10:14:58;3.00;;;0.90;;
4466;SDS011;2246;42.664;23.278;2022-07-11T10:19:53;3.10;;;0.60;;
4466;SDS011;2246;42.664;23.278;2022-07-11T10:22:31;2.15;;;1.33;;
4466;SDS011;2246;42.664;23.278;2022-07-11T10:27:41;5.00;;;0.82;;
4466;SDS011;2246;42.664;23.278;2022-07-11T10:30:09;3.38;;;0.82;;
4466;SDS011;2246;42.664;23.278;2022-07-11T10:35:20;1.35;;;0.70;;
4466;SDS011;2246;42.664;23.278;2022-07-11T10:37:51;4.05;;;0.90;;
4466;SDS011;2246;42.664;23.278;2022-07-11T10:43:03;3.70;;;0.90;;
4466;SDS011;2246;42.664;23.278;2022-07-11T10:45:29;5.45;;;0.90;;
4466;SDS011;2246;42.664;23.278;2022-07-11T10:48:14;4.95;;;0.90;;
4466;SDS011;2246;42.664;23.278;2022-07-11T10:50:40;3.55;;;0.77;;
4466;SDS011;2246;42.664;23.278;2022-07-11T10:53:07;6.20;;;1.00;;
4466;SDS011;2246;42.664;23.278;2022-07-11T10:55:34;2.30;;;0.85;;
4466;SDS011;2246;42.664;23.278;2022-07-11T10:58:20;1.67;;;0.80;;
4466;SDS011;2246;42.664;23.278;2022-07-11T11:00:49;5.78;;;1.02;;
4466;SDS011;2246;42.664;23.278;2022-07-11T11:03:33;1.45;;;0.70;;
4466;SDS011;2246;42.664;23.278;2022-07-11T11:05:59;7.18;;;1.23;;
4466;SDS011;2246;42.664;23.278;2022-07-11T11:13:31;3.22;;;0.80;;
4466;SDS011;2246;42.664;23.278;2022-07-11T11:16:00;2.38;;;0.63;;
4466;SDS011;2246;42.664;23.278;2022-07-11T11:18:33;0.95;;;0.70;;
4466;SDS011;2246;42.664;23.278;2022-07-11T11:23:31;2.13;;;0.80;;
4466;SDS011;2246;42.664;23.278;2022-07-11T11:26:07;2.38;;;1.00;;
4466;SDS011;2246;42.664;23.278;2022-07-11T11:28:34;3.75;;;0.70;;
4466;SDS011;2246;42.664;23.278;2022-07-11T11:31:02;1.95;;;0.68;;
4466;SDS011;2246;42.664;23.278;2022-07-11T11:33:29;1.75;;;0.90;;
4466;SDS011;2246;42.664;23.278;2022-07-11T11:36:02;2.40;;;1.20;;
4466;SDS011;2246;42.664;23.278;2022-07-11T11:38:34;8.68;;;1.27;;
4466;SDS011;2246;42.664;23.278;2022-07-11T11:41:01;2.55;;;0.80;;
4466;SDS011;2246;42.664;23.278;2022-07-11T11:43:27;6.22;;;1.05;;
4466;SDS011;2246;42.664;23.278;2022-07-11T11:45:53;2.33;;;0.88;;
4466;SDS011;2246;42.664;23.278;2022-07-11T11:48:36;1.73;;;0.70;;
4466;SDS011;2246;42.664;23.278;2022-07-11T11:53:37;2.03;;;0.77;;
4466;SDS011;2246;42.664;23.278;2022-07-11T11:56:37;3.88;;;1.10;;
4466;SDS011;2246;42.664;23.278;2022-07-11T11:59:05;4.65;;;0.90;;
4466;SDS011;2246;42.664;23.278;2022-07-11T12:01:38;2.83;;;0.80;;
4466;SDS011;2246;42.664;23.278;2022-07-11T12:04:05;1.88;;;0.70;;
4466;SDS011;2246;42.664;23.278;2022-07-11T12:06:40;6.63;;;0.82;;
4466;SDS011;2246;42.664;23.278;2022-07-11T12:09:09;3.85;;;0.95;;
4466;SDS011;2246;42.664;23.278;2022-07-11T12:11:36;9.02;;;1.08;;
4466;SDS011;2246;42.664;23.278;2022-07-11T12:14:04;1.67;;;0.93;;
4466;SDS011;2246;42.664;23.278;2022-07-11T12:16:31;4.93;;;1.08;;
4466;SDS011;2246;42.664;23.278;2022-07-11T12:19:05;2.60;;;1.00;;
4466;SDS011;2246;42.664;23.278;2022-07-11T12:21:33;2.92;;;0.80;;
4466;SDS011;2246;42.664;23.278;2022-07-11T12:24:00;4.55;;;1.23;;
4466;SDS011;2246;42.664;23.278;2022-07-11T12:26:28;3.80;;;1.20;;
4466;SDS011;2246;42.664;23.278;2022-07-11T12:29:03;2.42;;;1.08;;
4466;SDS011;2246;42.664;23.278;2022-07-11T12:32:10;2.33;;;0.90;;
4466;SDS011;2246;42.664;23.278;2022-07-11T12:34:25;4.97;;;0.90;;
4466;SDS011;2246;42.664;23.278;2022-07-11T12:37:10;1.92;;;0.80;;
4466;SDS011;2246;42.664;23.278;2022-07-11T12:39:38;1.90;;;0.88;;
4466;SDS011;2246;42.664;23.278;2022-07-11T12:42:27;1.37;;;1.00;;
4466;SDS011;2246;42.664;23.278;2022-07-11T12:45:14;3.25;;;1.20;;
4466;SDS011;2246;42.664;23.278;2022-07-11T12:47:44;3.13;;;0.82;;
4466;SDS011;2246;42.664;23.278;2022-07-11T12:50:23;2.17;;;1.00;;
4466;SDS011;2246;42.664;23.278;2022-07-11T12:52:51;5.45;;;1.30;;
4466;SDS011;2246;42.664;23.278;2022-07-11T12:58:05;3.42;;;0.90;;
4466;SDS011;2246;42.664;23.278;2022-07-11T13:00:31;7.40;;;1.00;;
4466;SDS011;2246;42.664;23.278;2022-07-11T13:02:58;2.22;;;1.02;;
4466;SDS011;2246;42.664;23.278;2022-07-11T13:05:25;2.60;;;1.00;;
4466;SDS011;2246;42.664;23.278;2022-07-11T13:07:51;1.92;;;0.90;;
4466;SDS011;2246;42.664;23.278;2022-07-11T13:10:36;4.18;;;1.70;;
4466;SDS011;2246;42.664;23.278;2022-07-11T13:13:18;1.67;;;1.00;;
4466;SDS011;2246;42.664;23.278;2022-07-11T13:15:44;4.43;;;1.00;;
4466;SDS011;2246;42.664;23.278;2022-07-11T13:18:15;1.75;;;0.82;;
4466;SDS011;2246;42.664;23.278;2022-07-11T13:20:42;2.35;;;1.20;;
4466;SDS011;2246;42.664;23.278;2022-07-11T13:23:08;2.80;;;1.10;;
4466;SDS011;2246;42.664;23.278;2022-07-11T13:25:34;3.03;;;0.93;;
4466;SDS011;2246;42.664;23.278;2022-07-11T13:28:00;0.95;;;0.65;;
4466;SDS011;2246;42.664;23.278;2022-07-11T13:30:29;3.33;;;0.98;;
4466;SDS011;2246;42.664;23.278;2022-07-11T13:32:56;1.90;;;0.82;;
4466;SDS011;2246;42.664;23.278;2022-07-11T13:35:22;2.47;;;0.77;;
4466;SDS011;2246;42.664;23.278;2022-07-11T13:37:49;9.27;;;1.13;;
4466;SDS011;2246;42.664;23.278;2022-07-11T13:40:18;2.17;;;0.90;;
4466;SDS011;2246;42.664;23.278;2022-07-11T13:42:44;5.57;;;1.15;;
4466;SDS011;2246;42.664;23.278;2022-07-11T13:45:11;4.65;;;0.90;;
4466;SDS011;2246;42.664;23.278;2022-07-11T13:47:38;1.48;;;0.80;;
4466;SDS011;2246;42.664;23.278;2022-07-11T13:50:04;1.17;;;0.80;;
4466;SDS011;2246;42.664;23.278;2022-07-11T13:52:31;4.60;;;1.00;;
4466;SDS011;2246;42.664;23.278;2022-07-11T13:54:57;3.50;;;1.17;;
4466;SDS011;2246;42.664;23.278;2022-07-11T13:57:24;2.47;;;0.75;;
4466;SDS011;2246;42.664;23.278;2022-07-11T13:59:50;4.90;;;1.08;;
4466;SDS011;2246;42.664;23.278;2022-07-11T14:02:16;1.25;;;0.70;;
4466;SDS011;2246;42.664;23.278;2022-07-11T14:04:43;2.03;;;0.88;;
4466;SDS011;2246;42.664;23.278;2022-07-11T14:07:09;6.82;;;1.10;;
4466;SDS011;2246;42.664;23.278;2022-07-11T14:09:36;4.63;;;1.05;;
4466;SDS011;2246;42.664;23.278;2022-07-11T14:12:03;4.43;;;0.93;;
4466;SDS011;2246;42.664;23.278;2022-07-11T14:14:30;4.03;;;1.00;;
4466;SDS011;2246;42.664;23.278;2022-07-11T14:16:57;1.42;;;0.60;;
4466;SDS011;2246;42.664;23.278;2022-07-11T14:19:24;1.63;;;0.85;;
4466;SDS011;2246;42.664;23.278;2022-07-11T14:21:50;3.42;;;1.08;;
4466;SDS011;2246;42.664;23.278;2022-07-11T14:24:16;4.03;;;0.85;;
4466;SDS011;2246;42.664;23.278;2022-07-11T14:26:42;0.88;;;0.80;;
4466;SDS011;2246;42.664;23.278;2022-07-11T14:29:08;2.28;;;0.80;;
4466;SDS011;2246;42.664;23.278;2022-07-11T14:31:35;1.80;;;1.00;;
4466;SDS011;2246;42.664;23.278;2022-07-11T14:34:02;2.25;;;0.95;;
4466;SDS011;2246;42.664;23.278;2022-07-11T14:36:28;1.02;;;0.75;;
4466;SDS011;2246;42.664;23.278;2022-07-11T14:38:54;1.10;;;1.00;;
4466;SDS011;2246;42.664;23.278;2022-07-11T14:41:21;4.63;;;1.00;;
4466;SDS011;2246;42.664;23.278;2022-07-11T14:43:47;1.13;;;0.70;;
4466;SDS011;2246;42.664;23.278;2022-07-11T14:46:14;6.47;;;1.48;;
4466;SDS011;2246;42.664;23.278;2022-07-11T14:48:44;2.65;;;0.90;;
4466;SDS011;2246;42.664;23.278;2022-07-11T14:51:11;4.93;;;0.80;;
4466;SDS011;2246;42.664;23.278;2022-07-11T14:53:38;4.50;;;1.10;;
4466;SDS011;2246;42.664;23.278;2022-07-11T14:56:04;3.80;;;1.10;;
4466;SDS011;2246;42.664;23.278;2022-07-11T14:58:30;5.07;;;1.00;;
4466;SDS011;2246;42.664;23.278;2022-07-11T15:00:58;3.72;;;1.23;;
4466;SDS011;2246;42.664;23.278;2022-07-11T15:03:24;1.55;;;0.88;;
4466;SDS011;2246;42.664;23.278;2022-07-11T15:06:10;2.38;;;0.98;;
4466;SDS011;2246;42.664;23.278;2022-07-11T15:08:36;1.38;;;1.00;;
4466;SDS011;2246;42.664;23.278;2022-07-11T15:11:21;2.25;;;1.10;;
4466;SDS011;2246;42.664;23.278;2022-07-11T15:14:06;1.70;;;0.90;;
4466;SDS011;2246;42.664;23.278;2022-07-11T15:16:32;4.45;;;1.25;;
4466;SDS011;2246;42.664;23.278;2022-07-11T15:18:59;2.08;;;0.90;;
4466;SDS011;2246;42.664;23.278;2022-07-11T15:21:25;2.25;;;1.05;;
4466;SDS011;2246;42.664;23.278;2022-07-11T15:23:51;4.28;;;1.20;;
4466;SDS011;2246;42.664;23.278;2022-07-11T15:26:17;3.60;;;1.85;;
4466;SDS011;2246;42.664;23.278;2022-07-11T15:28:44;1.67;;;0.85;;
4466;SDS011;2246;42.664;23.278;2022-07-11T15:31:11;4.57;;;1.20;;
4466;SDS011;2246;42.664;23.278;2022-07-11T15:33:37;3.42;;;1.02;;
4466;SDS011;2246;42.664;23.278;2022-07-11T15:36:04;4.28;;;0.70;;
4466;SDS011;2246;42.664;23.278;2022-07-11T15:38:30;3.45;;;1.10;;
4466;SDS011;2246;42.664;23.278;2022-07-11T15:40:56;2.55;;;0.90;;